createdAt,value
2022-09-12T00:02:09.477Z,16.40
2022-09-12T00:04:36.827Z,16.40
2022-09-12T00:07:03.979Z,16.40
2022-09-12T00:09:31.242Z,16.40
2022-09-12T00:11:58.760Z,16.30
2022-09-12T00:14:26.065Z,16.50
2022-09-12T00:16:53.415Z,16.40
2022-09-12T00:19:20.560Z,16.60
2022-09-12T00:21:47.710Z,16.30
2022-09-12T00:24:14.944Z,16.20
2022-09-12T00:26:42.271Z,16.30
2022-09-12T00:29:13.025Z,16.30
2022-09-12T00:31:40.179Z,16.30
2022-09-12T00:34:08.052Z,16.30
2022-09-12T00:36:36.762Z,16.20
2022-09-12T00:39:04.171Z,16.20
2022-09-12T00:41:54.302Z,16.20
2022-09-12T00:44:21.451Z,16.20
2022-09-12T00:47:07.441Z,16.10
2022-09-12T00:49:37.723Z,16.20
2022-09-12T00:52:07.091Z,16.20
2022-09-12T00:54:38.959Z,16.20
2022-09-12T00:57:07.213Z,16.10
2022-09-12T00:59:43.031Z,16.20
2022-09-12T01:02:10.535Z,15.70
2022-09-12T01:04:38.812Z,16.10
2022-09-12T01:07:06.444Z,16.10
2022-09-12T01:09:33.628Z,16.10
2022-09-12T01:12:02.299Z,16.10
2022-09-12T01:14:30.126Z,16.10
2022-09-12T01:16:57.546Z,16.10
2022-09-12T01:19:36.740Z,16.20
2022-09-12T01:22:22.390Z,16.10
2022-09-12T01:25:05.625Z,16.20
2022-09-12T01:27:51.681Z,16.30
2022-09-12T01:30:21.061Z,16.20
2022-09-12T01:32:51.230Z,16.20
2022-09-12T01:35:23.067Z,16.20
2022-09-12T01:38:13.502Z,16.20
2022-09-12T01:40:45.424Z,16.20
2022-09-12T01:43:32.162Z,16.30
2022-09-12T01:46:05.684Z,15.90
2022-09-12T01:48:41.475Z,16.30
2022-09-12T01:51:14.820Z,16.30
2022-09-12T01:53:44.279Z,16.20
2022-09-12T01:56:14.553Z,16.30
2022-09-12T01:58:43.903Z,16.30
2022-09-12T02:01:15.684Z,16.30
2022-09-12T02:03:46.330Z,16.30
2022-09-12T02:06:19.018Z,16.30
2022-09-12T02:08:53.646Z,16.40
2022-09-12T02:11:22.543Z,16.30
2022-09-12T02:13:49.598Z,16.40
2022-09-12T02:16:29.177Z,16.40
2022-09-12T02:18:59.631Z,16.40
2022-09-12T02:21:30.342Z,16.40
2022-09-12T02:23:58.882Z,16.40
2022-09-12T02:26:31.417Z,16.50
2022-09-12T02:28:58.820Z,16.50
2022-09-12T02:31:31.861Z,16.40
2022-09-12T02:34:16.504Z,16.50
2022-09-12T02:36:51.246Z,16.50
2022-09-12T02:39:20.216Z,16.50
2022-09-12T02:41:51.561Z,16.60
2022-09-12T02:44:19.159Z,16.60
2022-09-12T02:46:50.246Z,16.60
2022-09-12T02:49:18.256Z,16.60
2022-09-12T02:51:46.312Z,16.60
2022-09-12T02:54:14.833Z,16.60
2022-09-12T02:56:43.194Z,16.60
2022-09-12T02:59:11.821Z,16.60
2022-09-12T03:01:59.433Z,16.60
2022-09-12T03:04:45.398Z,16.60
2022-09-12T03:07:31.652Z,16.60
2022-09-12T03:10:03.779Z,16.60
2022-09-12T03:12:37.088Z,16.50
2022-09-12T03:15:07.577Z,16.50
2022-09-12T03:17:42.269Z,16.50
2022-09-12T03:20:31.751Z,16.50
2022-09-12T03:23:02.041Z,16.50
2022-09-12T03:25:33.000Z,16.40
2022-09-12T03:28:14.422Z,16.50
2022-09-12T03:30:42.910Z,16.60
2022-09-12T03:33:14.054Z,16.50
2022-09-12T03:35:41.475Z,16.40
2022-09-12T03:38:08.712Z,16.50
2022-09-12T03:40:36.172Z,16.40
2022-09-12T03:43:03.911Z,16.50
2022-09-12T03:45:31.178Z,16.50
2022-09-12T03:47:58.548Z,16.40
2022-09-12T03:50:26.041Z,16.40
2022-09-12T03:52:53.167Z,16.40
2022-09-12T03:55:20.268Z,16.50
2022-09-12T03:57:47.797Z,16.50
2022-09-12T04:00:19.612Z,16.50
2022-09-12T04:02:47.070Z,16.50
2022-09-12T04:05:14.694Z,16.50
2022-09-12T04:07:41.893Z,16.50
2022-09-12T04:10:09.778Z,16.50
2022-09-12T04:12:37.521Z,16.50
2022-09-12T04:15:05.250Z,16.50
2022-09-12T04:17:32.413Z,16.50
2022-09-12T04:20:00.076Z,16.60
2022-09-12T04:22:27.491Z,16.50
2022-09-12T04:24:54.729Z,16.60
2022-09-12T04:27:22.195Z,16.60
2022-09-12T04:29:49.542Z,16.60
2022-09-12T04:32:16.680Z,16.60
2022-09-12T04:34:43.952Z,16.60
2022-09-12T04:37:12.035Z,16.60
2022-09-12T04:39:39.201Z,16.60
2022-09-12T04:42:06.460Z,16.60
2022-09-12T04:44:33.680Z,16.60
2022-09-12T04:47:01.450Z,16.60
2022-09-12T04:49:28.594Z,16.60
2022-09-12T04:51:58.165Z,16.60
2022-09-12T04:54:25.757Z,16.60
2022-09-12T04:56:55.088Z,16.20
2022-09-12T04:59:22.598Z,16.60
2022-09-12T05:01:52.232Z,16.60
2022-09-12T05:04:19.695Z,16.60
2022-09-12T05:06:47.654Z,16.60
2022-09-12T05:09:14.811Z,16.60
2022-09-12T05:14:32.729Z,16.60
2022-09-12T05:17:02.050Z,16.60
2022-09-12T05:19:30.363Z,16.60
2022-09-12T05:21:58.004Z,16.60
2022-09-12T05:24:25.513Z,16.60
2022-09-12T05:26:52.631Z,16.60
2022-09-12T05:29:20.054Z,16.60
2022-09-12T05:31:52.401Z,16.60
2022-09-12T05:34:20.142Z,16.60
2022-09-12T05:36:47.867Z,16.60
2022-09-12T05:39:15.233Z,16.60
2022-09-12T05:41:42.410Z,16.70
2022-09-12T05:44:12.152Z,16.60
2022-09-12T05:46:40.400Z,16.60
2022-09-12T05:49:12.241Z,16.60
2022-09-12T05:51:41.802Z,16.50
2022-09-12T05:54:10.150Z,16.60
2022-09-12T05:56:39.500Z,16.60
2022-09-12T05:59:08.087Z,16.60
2022-09-12T06:01:35.594Z,16.60
2022-09-12T06:04:04.091Z,16.70
2022-09-12T06:06:32.414Z,16.70
2022-09-12T06:09:01.941Z,16.70
2022-09-12T06:11:30.321Z,16.70
2022-09-12T06:13:58.269Z,16.70
2022-09-12T06:16:26.719Z,16.80
2022-09-12T06:18:55.068Z,16.80
2022-09-12T06:21:22.873Z,16.70
2022-09-12T06:23:50.148Z,16.80
2022-09-12T06:26:19.592Z,16.80
2022-09-12T06:28:47.643Z,16.80
2022-09-12T06:31:16.322Z,16.80
2022-09-12T06:33:44.250Z,16.90
2022-09-12T06:36:30.829Z,16.80
2022-09-12T06:38:59.465Z,16.90
2022-09-12T06:41:27.307Z,16.90
2022-09-12T06:43:54.631Z,16.90
2022-09-12T06:46:22.419Z,17.00
2022-09-12T06:48:50.188Z,17.00
2022-09-12T06:51:18.089Z,17.00
2022-09-12T06:53:45.846Z,17.10
2022-09-12T06:56:20.508Z,17.20
2022-09-12T06:58:49.900Z,17.30
2022-09-12T07:01:24.707Z,17.40
2022-09-12T07:03:53.365Z,17.40
2022-09-12T07:06:21.974Z,17.50
2022-09-12T07:08:49.199Z,17.50
2022-09-12T07:11:20.202Z,17.50
2022-09-12T07:13:48.309Z,17.60
2022-09-12T07:16:19.895Z,17.70
2022-09-12T07:18:51.468Z,17.70
2022-09-12T07:21:18.942Z,17.70
2022-09-12T07:23:46.815Z,17.80
2022-09-12T07:26:14.700Z,17.80
2022-09-12T07:28:41.964Z,17.90
2022-09-12T07:31:10.892Z,17.90
2022-09-12T07:33:39.393Z,18.00
2022-09-12T07:36:08.910Z,18.00
2022-09-12T07:38:36.767Z,18.00
2022-09-12T07:41:16.278Z,18.50
2022-09-12T07:43:44.297Z,18.20
2022-09-12T07:46:11.876Z,18.20
2022-09-12T07:48:39.321Z,18.20
2022-09-12T07:51:07.986Z,18.30
2022-09-12T07:53:37.570Z,19.60
2022-09-12T07:56:05.584Z,18.40
2022-09-12T07:58:34.711Z,18.50
2022-09-12T08:01:06.019Z,18.40
2022-09-12T08:03:33.387Z,18.50
2022-09-12T08:06:06.875Z,18.60
2022-09-12T08:08:36.145Z,18.60
2022-09-12T08:11:06.196Z,18.60
2022-09-12T08:13:34.746Z,19.20
2022-09-12T08:16:03.358Z,18.70
2022-09-12T08:18:31.105Z,18.80
2022-09-12T08:21:24.601Z,18.70
2022-09-12T08:23:53.005Z,18.80
2022-09-12T08:26:21.930Z,18.90
2022-09-12T08:28:49.257Z,18.90
2022-09-12T08:31:17.493Z,18.90
2022-09-12T08:33:44.985Z,18.80
2022-09-12T08:36:30.863Z,18.90
2022-09-12T08:39:00.414Z,18.90
2022-09-12T08:41:32.126Z,18.90
2022-09-12T08:43:59.531Z,18.80
2022-09-12T08:46:44.796Z,18.80
2022-09-12T08:49:13.612Z,18.90
2022-09-12T08:51:41.362Z,18.90
2022-09-12T08:54:20.664Z,18.90
2022-09-12T08:56:48.490Z,19.00
2022-09-12T08:59:15.892Z,19.10
2022-09-12T09:01:44.239Z,19.20
2022-09-12T09:04:14.395Z,19.40
2022-09-12T09:06:51.077Z,19.40
2022-09-12T09:09:38.648Z,19.50
2022-09-12T09:12:15.144Z,19.60
2022-09-12T09:14:55.129Z,19.70
2022-09-12T09:17:28.459Z,19.80
2022-09-12T09:20:16.839Z,19.90
2022-09-12T09:22:49.069Z,19.90
2022-09-12T09:25:23.883Z,20.90
2022-09-12T09:27:58.770Z,20.00
2022-09-12T09:30:26.037Z,20.20
2022-09-12T09:32:58.268Z,20.10
2022-09-12T09:35:25.759Z,19.90
2022-09-12T09:38:00.953Z,20.10
2022-09-12T09:40:40.077Z,20.20
2022-09-12T09:43:19.738Z,20.20
2022-09-12T09:45:47.965Z,20.20
2022-09-12T09:48:36.052Z,20.90
2022-09-12T09:51:05.231Z,20.30
2022-09-12T09:53:46.279Z,20.50
2022-09-12T09:56:26.342Z,20.50
2022-09-12T09:58:53.524Z,20.50
2022-09-12T10:01:21.494Z,20.50
2022-09-12T10:03:52.846Z,20.50
2022-09-12T10:06:20.740Z,20.50
2022-09-12T10:08:48.899Z,20.40
2022-09-12T10:11:22.614Z,20.40
2022-09-12T10:13:57.603Z,20.30
2022-09-12T10:16:31.953Z,20.20
2022-09-12T10:19:00.228Z,20.20
2022-09-12T10:21:34.118Z,20.20
2022-09-12T10:24:04.012Z,20.20
2022-09-12T10:26:32.920Z,20.20
2022-09-12T10:29:03.490Z,20.20
2022-09-12T10:31:39.322Z,20.20
2022-09-12T10:34:06.722Z,20.30
2022-09-12T10:36:37.235Z,20.30
2022-09-12T10:39:05.047Z,20.40
2022-09-12T10:41:37.121Z,20.50
2022-09-12T10:44:18.397Z,20.60
2022-09-12T10:46:45.630Z,20.70
2022-09-12T10:49:14.693Z,20.80
2022-09-12T10:51:42.026Z,20.90
2022-09-12T10:54:10.216Z,20.90
2022-09-12T10:56:52.665Z,21.10
2022-09-12T10:59:36.143Z,21.10
2022-09-12T11:02:15.055Z,21.20
2022-09-12T11:04:51.408Z,21.30
2022-09-12T11:07:24.847Z,21.40
2022-09-12T11:10:11.111Z,21.50
2022-09-12T11:12:44.083Z,21.50
2022-09-12T11:15:35.652Z,21.60
2022-09-12T11:18:10.316Z,21.70
2022-09-12T11:21:03.622Z,21.70
2022-09-12T11:23:30.888Z,21.70
2022-09-12T11:26:04.892Z,21.80
2022-09-12T11:28:32.113Z,21.90
2022-09-12T11:31:08.566Z,22.00
2022-09-12T11:33:39.664Z,22.00
2022-09-12T11:36:35.691Z,22.00
2022-09-12T11:39:14.180Z,22.00
2022-09-12T11:41:48.444Z,22.10
2022-09-12T11:44:19.271Z,22.20
2022-09-12T11:46:49.940Z,22.20
2022-09-12T11:49:35.898Z,21.50
2022-09-12T11:52:22.432Z,22.20
2022-09-12T11:55:05.311Z,22.20
2022-09-12T11:57:53.759Z,22.20
2022-09-12T12:00:20.978Z,22.20
2022-09-12T12:02:48.186Z,22.30
2022-09-12T12:05:15.609Z,22.30
2022-09-12T12:07:48.848Z,22.40
2022-09-12T12:10:25.313Z,22.50
2022-09-12T12:12:54.048Z,22.50
2022-09-12T12:15:22.222Z,22.50
2022-09-12T12:18:09.700Z,22.40
2022-09-12T12:20:37.463Z,22.40
2022-09-12T12:23:04.680Z,22.60
2022-09-12T12:25:40.556Z,22.30
2022-09-12T12:28:07.741Z,22.20
2022-09-12T12:30:37.990Z,22.20
2022-09-12T12:33:11.302Z,22.20
2022-09-12T12:36:01.909Z,22.30
2022-09-12T12:38:30.927Z,22.30
2022-09-12T12:41:16.685Z,22.30
2022-09-12T12:43:44.630Z,22.30
2022-09-12T12:46:13.090Z,22.30
2022-09-12T12:48:59.179Z,22.30
2022-09-12T12:51:28.357Z,22.30
2022-09-12T12:53:55.856Z,22.30
2022-09-12T12:56:29.296Z,22.30
2022-09-12T12:59:01.531Z,22.40
2022-09-12T13:01:29.272Z,22.40
2022-09-12T13:04:02.860Z,22.40
2022-09-12T13:06:43.263Z,22.40
2022-09-12T13:09:10.503Z,22.40
2022-09-12T13:11:39.671Z,22.60
2022-09-12T13:14:09.705Z,22.50
2022-09-12T13:16:38.671Z,22.50
2022-09-12T13:19:17.943Z,22.50
2022-09-12T13:22:02.692Z,22.60
2022-09-12T13:24:30.116Z,22.60
2022-09-12T13:27:00.862Z,22.60
2022-09-12T13:29:28.416Z,22.50
2022-09-12T13:32:01.095Z,23.10
2022-09-12T13:34:33.038Z,22.50
2022-09-12T13:37:09.376Z,22.40
2022-09-12T13:39:50.157Z,22.40
2022-09-12T13:42:29.825Z,22.40
2022-09-12T13:45:15.615Z,22.40
2022-09-12T13:47:47.958Z,23.00
2022-09-12T13:50:21.290Z,22.40
2022-09-12T13:52:57.643Z,22.30
2022-09-12T13:55:35.664Z,22.40
2022-09-12T13:58:07.621Z,22.40
2022-09-12T14:00:35.185Z,22.40
2022-09-12T14:03:31.768Z,22.40
2022-09-12T14:05:59.423Z,22.40
2022-09-12T14:08:28.067Z,22.40
2022-09-12T14:10:55.425Z,22.50
2022-09-12T14:13:24.298Z,22.60
2022-09-12T14:15:55.042Z,22.70
2022-09-12T14:18:23.557Z,22.70
2022-09-12T14:20:52.867Z,22.80
2022-09-12T14:23:31.154Z,22.80
2022-09-12T14:26:00.124Z,22.80
2022-09-12T14:28:31.207Z,22.90
2022-09-12T14:31:05.536Z,22.90
2022-09-12T14:33:52.995Z,22.80
2022-09-12T14:36:34.873Z,22.80
2022-09-12T14:39:04.829Z,22.70
2022-09-12T14:41:38.292Z,22.70
2022-09-12T14:44:08.391Z,23.40
2022-09-12T14:46:37.489Z,22.70
2022-09-12T14:49:09.328Z,22.70
2022-09-12T14:51:51.865Z,22.70
2022-09-12T14:54:28.059Z,22.80
2022-09-12T14:56:57.007Z,22.80
2022-09-12T14:59:27.381Z,22.80
2022-09-12T15:02:14.228Z,22.90
2022-09-12T15:04:44.424Z,22.90
2022-09-12T15:07:24.922Z,22.90
2022-09-12T15:09:52.348Z,22.90
2022-09-12T15:12:22.024Z,22.90
2022-09-12T15:14:50.193Z,23.00
2022-09-12T15:17:23.432Z,22.90
2022-09-12T15:19:50.610Z,23.00
2022-09-12T15:22:18.191Z,22.90
2022-09-12T15:24:45.303Z,22.90
2022-09-12T15:27:12.842Z,22.90
2022-09-12T15:29:40.006Z,22.90
2022-09-12T15:32:12.535Z,22.80
2022-09-12T15:34:39.690Z,22.80
2022-09-12T15:37:14.264Z,22.80
2022-09-12T15:39:41.707Z,22.80
2022-09-12T15:42:09.583Z,22.80
2022-09-12T15:44:36.847Z,22.80
2022-09-12T15:47:05.006Z,22.80
2022-09-12T15:49:32.252Z,22.80
2022-09-12T15:51:59.597Z,22.80
2022-09-12T15:54:26.911Z,22.70
2022-09-12T15:56:54.112Z,22.70
2022-09-12T15:59:21.411Z,22.70
2022-09-12T16:01:49.495Z,22.70
2022-09-12T16:04:24.224Z,22.70
2022-09-12T16:06:51.984Z,22.60
2022-09-12T16:09:19.265Z,22.60
2022-09-12T16:11:46.742Z,22.60
2022-09-12T16:14:14.683Z,22.60
2022-09-12T16:16:42.971Z,22.50
2022-09-12T16:19:10.958Z,22.40
2022-09-12T16:21:38.490Z,22.40
2022-09-12T16:24:06.669Z,22.40
2022-09-12T16:26:34.144Z,22.30
2022-09-12T16:29:01.861Z,22.30
2022-09-12T16:31:29.186Z,22.30
2022-09-12T16:33:56.372Z,22.30
2022-09-12T16:36:23.558Z,22.30
2022-09-12T16:38:51.635Z,22.30
2022-09-12T16:41:20.303Z,22.30
2022-09-12T16:43:49.195Z,22.20
2022-09-12T16:46:17.590Z,22.30
2022-09-12T16:48:51.553Z,22.20
2022-09-12T16:51:20.556Z,22.20
2022-09-12T16:53:48.948Z,22.20
2022-09-12T16:56:17.633Z,22.30
2022-09-12T16:58:45.325Z,21.70
2022-09-12T17:01:17.148Z,22.30
2022-09-12T17:03:44.878Z,22.30
2022-09-12T17:06:13.179Z,22.30
2022-09-12T17:08:41.580Z,22.20
2022-09-12T17:11:11.934Z,22.20
2022-09-12T17:14:02.633Z,22.10
2022-09-12T17:16:27.007Z,22.20
2022-09-12T17:18:54.734Z,22.00
2022-09-12T17:21:21.975Z,22.00
2022-09-12T17:23:49.333Z,21.90
2022-09-12T17:26:21.989Z,21.80
2022-09-12T17:28:51.787Z,21.70
2022-09-12T17:31:18.896Z,21.70
2022-09-12T17:33:46.440Z,21.60
2022-09-12T17:36:16.380Z,21.60
2022-09-12T17:38:44.907Z,21.60
2022-09-12T17:41:13.697Z,21.50
2022-09-12T17:43:42.348Z,21.50
2022-09-12T17:46:09.827Z,21.40
2022-09-12T17:48:37.339Z,22.70
2022-09-12T17:51:11.623Z,21.40
2022-09-12T17:53:42.451Z,21.40
2022-09-12T17:56:10.360Z,21.40
2022-09-12T17:58:37.914Z,21.40
2022-09-12T18:01:25.456Z,21.30
2022-09-12T18:03:56.907Z,21.30
2022-09-12T18:06:24.586Z,21.40
2022-09-12T18:08:51.813Z,21.30
2022-09-12T18:11:19.261Z,21.20
2022-09-12T18:13:46.575Z,21.20
2022-09-12T18:16:17.167Z,21.20
2022-09-12T18:18:45.988Z,21.20
2022-09-12T18:21:13.510Z,21.20
2022-09-12T18:23:40.983Z,21.10
2022-09-12T18:26:09.993Z,21.10
2022-09-12T18:28:43.449Z,21.10
2022-09-12T18:31:15.485Z,21.10
2022-09-12T18:33:43.101Z,21.00
2022-09-12T18:36:12.204Z,21.00
2022-09-12T18:38:39.871Z,21.00
2022-09-12T18:41:09.592Z,21.00
2022-09-12T18:43:38.207Z,20.90
2022-09-12T18:46:06.301Z,20.90
2022-09-12T18:48:33.631Z,20.60
2022-09-12T18:51:11.032Z,20.90
2022-09-12T18:53:39.088Z,20.90
2022-09-12T18:56:10.382Z,20.90
2022-09-12T18:58:38.527Z,20.90
2022-09-12T19:01:13.071Z,20.90
2022-09-12T19:03:40.731Z,21.60
2022-09-12T19:06:13.626Z,20.90
2022-09-12T19:08:41.192Z,20.80
2022-09-12T19:11:08.985Z,20.80
2022-09-12T19:13:37.053Z,20.80
2022-09-12T19:16:09.246Z,20.80
2022-09-12T19:18:38.373Z,20.80
2022-09-12T19:21:06.895Z,20.80
2022-09-12T19:23:36.549Z,20.70
2022-09-12T19:26:07.653Z,20.70
2022-09-12T19:28:35.977Z,22.00
2022-09-12T19:31:07.164Z,20.60
2022-09-12T19:33:34.827Z,20.60
2022-09-12T19:36:03.621Z,20.50
2022-09-12T19:38:31.923Z,20.60
2022-09-12T19:41:01.033Z,20.60
2022-09-12T19:43:28.878Z,20.60
2022-09-12T19:45:56.360Z,20.60
2022-09-12T19:48:23.615Z,22.10
2022-09-12T19:50:52.574Z,20.50
2022-09-12T19:53:20.690Z,20.50
2022-09-12T19:55:49.250Z,20.50
2022-09-12T19:58:17.540Z,20.50
2022-09-12T20:00:45.733Z,20.50
2022-09-12T20:03:15.711Z,20.50
2022-09-12T20:05:45.099Z,20.50
2022-09-12T20:08:13.242Z,20.50
2022-09-12T20:10:40.496Z,20.40
2022-09-12T20:13:07.649Z,20.40
2022-09-12T20:15:34.933Z,20.50
2022-09-12T20:18:02.529Z,20.40
2022-09-12T20:20:30.966Z,20.40
2022-09-12T20:23:00.740Z,20.40
2022-09-12T20:25:31.164Z,20.40
2022-09-12T20:28:00.226Z,20.40
2022-09-12T20:30:28.090Z,20.40
2022-09-12T20:32:55.596Z,20.40
2022-09-12T20:35:23.426Z,20.40
2022-09-12T20:37:50.557Z,20.40
2022-09-12T20:40:17.815Z,20.30
2022-09-12T20:42:45.015Z,20.30
2022-09-12T20:45:12.200Z,20.30
2022-09-12T20:47:39.415Z,20.30
2022-09-12T20:50:06.946Z,20.30
2022-09-12T20:52:34.135Z,20.00
2022-09-12T20:55:01.399Z,20.30
2022-09-12T20:57:28.813Z,20.30
2022-09-12T20:59:55.969Z,20.30
2022-09-12T21:02:23.261Z,20.20
2022-09-12T21:04:50.933Z,20.20
2022-09-12T21:07:18.347Z,20.20
2022-09-12T21:09:46.641Z,20.20
2022-09-12T21:12:14.030Z,20.10
2022-09-12T21:14:42.801Z,20.10
2022-09-12T21:17:11.048Z,20.10
2022-09-12T21:19:38.790Z,20.10
2022-09-12T21:22:06.178Z,20.10
2022-09-12T21:24:33.407Z,20.00
2022-09-12T21:27:04.175Z,20.00
2022-09-12T21:29:31.972Z,20.00
2022-09-12T21:31:59.130Z,20.00
2022-09-12T21:34:26.261Z,19.90
2022-09-12T21:36:54.040Z,20.00
2022-09-12T21:39:21.231Z,20.00
2022-09-12T21:41:48.606Z,20.00
2022-09-12T21:44:15.865Z,19.90
2022-09-12T21:46:43.058Z,19.90
2022-09-12T21:49:10.219Z,20.00
2022-09-12T21:51:37.515Z,19.90
2022-09-12T21:54:04.782Z,19.90
2022-09-12T21:56:32.164Z,19.20
2022-09-12T21:58:59.369Z,19.90
2022-09-12T22:01:26.579Z,19.90
2022-09-12T22:03:54.813Z,19.90
2022-09-12T22:06:23.067Z,19.90
2022-09-12T22:08:50.265Z,19.90
2022-09-12T22:11:20.023Z,19.90
2022-09-12T22:13:48.403Z,19.90
2022-09-12T22:16:18.243Z,21.30
2022-09-12T22:18:50.640Z,19.90
2022-09-12T22:21:19.353Z,19.90
2022-09-12T22:24:05.224Z,20.20
2022-09-12T22:26:39.238Z,19.80
2022-09-12T22:29:06.382Z,19.80
2022-09-12T22:31:36.410Z,19.80
2022-09-12T22:34:03.626Z,19.80
2022-09-12T22:36:34.087Z,19.80
2022-09-12T22:39:03.929Z,19.80
2022-09-12T22:41:31.519Z,19.70
2022-09-12T22:43:58.663Z,19.70
2022-09-12T22:46:26.207Z,19.70
2022-09-12T22:48:55.644Z,19.70
2022-09-12T22:51:22.880Z,19.70
2022-09-12T22:53:50.224Z,19.60
2022-09-12T22:56:17.707Z,19.60
2022-09-12T22:58:44.944Z,19.60
2022-09-12T23:01:12.253Z,19.60
2022-09-12T23:03:40.740Z,19.60
2022-09-12T23:06:10.107Z,19.60
2022-09-12T23:08:38.268Z,19.50
2022-09-12T23:11:07.146Z,19.50
2022-09-12T23:13:35.250Z,19.50
2022-09-12T23:16:03.452Z,19.50
2022-09-12T23:18:33.665Z,19.40
2022-09-12T23:21:02.187Z,19.40
2022-09-12T23:23:29.537Z,19.40
2022-09-12T23:26:06.106Z,19.40
2022-09-12T23:28:33.792Z,19.30
2022-09-12T23:31:01.256Z,19.30
2022-09-12T23:33:30.521Z,19.30
2022-09-12T23:36:02.236Z,19.20
2022-09-12T23:38:34.842Z,19.20
2022-09-12T23:41:03.309Z,19.90
2022-09-12T23:43:30.626Z,19.10
2022-09-12T23:45:58.281Z,19.10
2022-09-12T23:48:25.989Z,19.10
2022-09-12T23:50:53.960Z,19.20
2022-09-12T23:53:21.518Z,19.10
2022-09-12T23:55:49.154Z,19.10
2022-09-12T23:58:16.994Z,19.10
